createdAt,value
2023-03-13T00:00:28.754Z,98438.1
2023-03-13T00:06:12.543Z,98433.8
2023-03-13T00:11:48.160Z,98429.9
2023-03-13T00:17:23.326Z,98426.5
2023-03-13T00:22:58.253Z,98418.1
2023-03-13T00:28:33.314Z,98409.8
2023-03-13T00:34:08.483Z,98392.5
2023-03-13T00:39:44.102Z,98376.6
2023-03-13T00:45:19.691Z,98376.8
2023-03-13T00:50:54.784Z,98364
2023-03-13T00:56:30.181Z,98366.5
2023-03-13T01:02:14.699Z,98363.7
2023-03-13T01:07:51.193Z,98361.7
2023-03-13T01:13:26.430Z,98362.3
2023-03-13T01:19:02.422Z,98346.7
2023-03-13T01:24:37.196Z,98332.3
2023-03-13T01:30:12.226Z,98313.7
2023-03-13T01:35:48.358Z,98303.5
2023-03-13T01:41:44.806Z,98285.5
2023-03-13T01:47:19.856Z,98274.5
2023-03-13T01:52:54.939Z,98261.3
2023-03-13T01:58:30.335Z,98255.1
2023-03-13T02:04:06.656Z,98253.7
2023-03-13T02:09:42.147Z,98242.1
2023-03-13T02:15:17.824Z,98228.2
2023-03-13T02:20:52.948Z,98227.9
2023-03-13T02:26:28.081Z,98219.5
2023-03-13T02:32:02.926Z,98207.2
2023-03-13T02:37:38.105Z,98199.9
2023-03-13T02:43:13.390Z,98175.2
2023-03-13T02:48:48.228Z,98165.9
2023-03-13T02:54:23.485Z,98155
2023-03-13T03:00:05.022Z,98144.8
2023-03-13T03:05:40.360Z,98143
2023-03-13T03:11:15.430Z,98136.2
2023-03-13T03:16:52.622Z,98126
2023-03-13T03:22:29.139Z,98115.4
2023-03-13T03:28:04.389Z,98108.2
2023-03-13T03:33:39.709Z,98101.2
2023-03-13T03:39:15.037Z,98093.8
2023-03-13T03:44:50.177Z,98091.4
2023-03-13T03:50:26.735Z,98092.6
2023-03-13T03:56:01.852Z,98091.2
2023-03-13T04:01:38.750Z,98082.9
2023-03-13T04:07:14.188Z,98080.4
2023-03-13T04:12:49.542Z,98067.3
2023-03-13T04:18:24.908Z,98063.9
2023-03-13T04:24:00.300Z,98072.7
2023-03-13T04:29:35.208Z,98066.7
2023-03-13T04:35:10.746Z,98059.7
2023-03-13T04:40:46.691Z,98065
2023-03-13T04:46:35.547Z,98070.6
2023-03-13T04:52:11.469Z,98077.9
2023-03-13T04:57:46.767Z,98079.9
2023-03-13T05:03:22.070Z,98074.6
2023-03-13T05:08:57.320Z,98089.3
2023-03-13T05:14:33.376Z,98069.8
2023-03-13T05:20:08.408Z,98068.4
2023-03-13T05:25:43.961Z,98070.4
2023-03-13T05:31:19.505Z,98063.8
2023-03-13T05:36:55.503Z,98064.2
2023-03-13T05:42:31.626Z,98061.9
2023-03-13T05:48:07.232Z,98060
2023-03-13T05:53:42.717Z,98059.3
2023-03-13T05:59:20.681Z,98048.3
2023-03-13T06:04:56.925Z,98037
2023-03-13T06:10:34.444Z,98027.4
2023-03-13T06:16:10.605Z,98017.2
2023-03-13T06:21:45.745Z,98025.2
2023-03-13T06:27:20.978Z,98028.1
2023-03-13T06:32:56.564Z,98024.5
2023-03-13T06:38:33.099Z,98013.1
2023-03-13T06:44:08.185Z,98007.1
2023-03-13T06:49:43.335Z,98004.3
2023-03-13T06:55:18.652Z,98003.2
2023-03-13T07:00:54.681Z,97994.4
2023-03-13T07:06:30.869Z,98003
2023-03-13T07:12:06.194Z,98005.1
2023-03-13T07:17:41.309Z,98007.3
2023-03-13T07:23:20.152Z,98010.8
2023-03-13T07:28:57.154Z,98028.6
2023-03-13T07:34:34.009Z,98018.3
2023-03-13T07:40:18.250Z,98020
2023-03-13T07:45:55.899Z,98020.6
2023-03-13T07:51:44.828Z,98023.2
2023-03-13T07:57:20.608Z,98016.9
2023-03-13T08:02:56.160Z,98009
2023-03-13T08:08:31.646Z,98009.2
2023-03-13T08:14:07.522Z,98012.2
2023-03-13T08:20:04.332Z,98007.7
2023-03-13T08:25:39.832Z,98009.8
2023-03-13T08:31:21.062Z,97999.5
2023-03-13T08:37:04.507Z,97988.4
2023-03-13T08:42:39.858Z,97984.2
2023-03-13T08:48:15.460Z,97980.2
2023-03-13T08:53:51.217Z,97983.5
2023-03-13T08:59:26.470Z,97972.2
2023-03-13T09:05:01.882Z,97960.9
2023-03-13T09:10:37.301Z,97946.4
2023-03-13T09:16:14.069Z,97937.9
2023-03-13T09:21:50.105Z,97932.9
2023-03-13T09:27:25.458Z,97922.6
2023-03-13T09:33:01.402Z,97903.8
2023-03-13T09:38:37.744Z,97888.9
2023-03-13T09:44:13.681Z,97882.3
2023-03-13T09:49:48.949Z,97868.4
2023-03-13T09:55:24.478Z,97862.4
2023-03-13T10:01:09.749Z,97858.2
2023-03-13T10:06:57.688Z,97844.5
2023-03-13T10:12:34.216Z,97841
2023-03-13T10:18:12.111Z,97841.6
2023-03-13T10:23:48.360Z,97831.3
2023-03-13T10:29:31.671Z,97809.6
2023-03-13T10:35:07.159Z,97808.9
2023-03-13T10:40:42.780Z,97800.4
2023-03-13T10:46:18.718Z,97778.2
2023-03-13T10:51:54.276Z,97758.4
2023-03-13T10:57:30.121Z,97772.4
2023-03-13T11:03:05.803Z,97755.1
2023-03-13T11:08:43.031Z,97758.2
2023-03-13T11:14:38.784Z,97751.8
2023-03-13T11:20:14.450Z,97735.3
2023-03-13T11:25:52.919Z,97726.7
2023-03-13T11:31:35.005Z,97710.4
2023-03-13T11:37:12.005Z,97696.6
2023-03-13T11:42:47.705Z,97668.2
2023-03-13T11:48:24.942Z,97664.3
2023-03-13T11:54:05.478Z,97655.1
2023-03-13T11:59:45.390Z,97628
2023-03-13T12:05:22.254Z,97640.3
2023-03-13T12:10:59.337Z,97624.8
2023-03-13T12:16:35.038Z,97615.8
2023-03-13T12:22:11.411Z,97605.3
2023-03-13T12:27:52.755Z,97597.7
2023-03-13T12:33:31.733Z,97584
2023-03-13T12:39:08.241Z,97559.1
2023-03-13T12:44:43.725Z,97553.3
2023-03-13T12:50:19.376Z,97546.9
2023-03-13T12:55:55.193Z,97529.7
2023-03-13T13:01:31.147Z,97509.3
2023-03-13T13:07:08.061Z,97495.4
2023-03-13T13:12:44.173Z,97483.2
2023-03-13T13:18:19.254Z,97479.4
2023-03-13T13:23:55.341Z,97458.2
2023-03-13T13:29:30.523Z,97445.1
2023-03-13T13:35:05.926Z,97437.5
2023-03-13T13:40:41.592Z,97408.1
2023-03-13T13:46:19.380Z,97402.3
2023-03-13T13:51:55.794Z,97397.1
2023-03-13T13:57:31.241Z,97399
2023-03-13T14:03:06.848Z,97387.5
2023-03-13T14:08:42.819Z,97386.9
2023-03-13T14:14:18.449Z,97376
2023-03-13T14:19:54.788Z,97376
2023-03-13T14:25:30.381Z,97377.3
2023-03-13T14:31:06.255Z,97376.1
2023-03-13T14:36:41.725Z,97371
2023-03-13T14:42:19.217Z,97361.2
2023-03-13T14:48:04.262Z,97350.1
2023-03-13T14:53:39.941Z,97356.7
2023-03-13T14:59:15.224Z,97355.1
2023-03-13T15:04:51.060Z,97366.8
2023-03-13T15:10:26.457Z,97369
2023-03-13T15:16:02.648Z,97352.3
2023-03-13T15:21:39.313Z,97339.5
2023-03-13T15:27:23.406Z,97364
2023-03-13T15:32:59.160Z,97353
2023-03-13T15:38:36.132Z,97365.9
2023-03-13T15:44:11.416Z,97359
2023-03-13T15:49:46.740Z,97370.8
2023-03-13T15:55:22.476Z,97390.1
2023-03-13T16:00:57.652Z,97393.4
2023-03-13T16:06:34.319Z,97415.1
2023-03-13T16:12:10.493Z,97443.6
2023-03-13T16:17:45.576Z,97431.7
2023-03-13T16:23:20.489Z,97418.4
2023-03-13T16:30:39.465Z,97462
2023-03-13T16:36:21.989Z,97463.3
2023-03-13T16:41:57.616Z,97470
2023-03-13T16:47:38.373Z,97483.4
2023-03-13T16:53:13.917Z,97498.3
2023-03-13T16:58:49.402Z,97527.8
2023-03-13T17:04:27.677Z,97558
2023-03-13T17:10:05.385Z,97605.2
2023-03-13T17:15:41.733Z,97642
2023-03-13T17:21:21.876Z,97678.4
2023-03-13T17:27:07.576Z,97780.7
2023-03-13T17:32:52.405Z,97825.5
2023-03-13T17:38:38.012Z,97868.2
2023-03-13T17:44:21.872Z,97880
2023-03-13T17:50:10.195Z,97953.2
2023-03-13T17:56:09.888Z,97992.4
2023-03-13T18:03:27.826Z,98037
2023-03-13T18:09:08.090Z,98024.7
2023-03-13T18:14:44.379Z,98024.1
2023-03-13T18:20:19.771Z,98073.7
2023-03-13T18:26:14.201Z,98091
2023-03-13T18:31:49.762Z,98128.9
2023-03-13T18:37:26.154Z,98108.2
2023-03-13T18:43:01.697Z,98127.9
2023-03-13T18:48:36.671Z,98122.8
2023-03-13T18:54:12.582Z,98169.9
2023-03-13T18:59:52.637Z,98182.7
2023-03-13T19:05:41.887Z,98200.8
2023-03-13T19:11:21.562Z,98218.3
2023-03-13T19:17:02.393Z,98230.8
2023-03-13T19:23:21.938Z,98240.5
2023-03-13T19:29:03.110Z,98284.4
2023-03-13T19:34:43.988Z,98249.5
2023-03-13T19:40:25.123Z,98233.8
2023-03-13T19:46:01.179Z,98257
2023-03-13T19:51:36.947Z,98230.9
2023-03-13T19:57:12.364Z,98255.3
2023-03-13T20:02:50.062Z,98280.3
2023-03-13T20:08:26.108Z,98274.4
2023-03-13T20:14:09.119Z,98278.9
2023-03-13T20:19:44.709Z,98283.1
2023-03-13T20:25:42.284Z,98277.4
2023-03-13T20:32:08.650Z,98276.2
2023-03-13T20:37:55.169Z,98277.1
2023-03-13T20:43:47.934Z,98281
2023-03-13T20:49:43.256Z,98281.2
2023-03-13T20:55:22.223Z,98272.7
2023-03-13T21:01:23.035Z,98281.2
2023-03-13T21:07:03.703Z,98285.5
2023-03-13T21:13:00.258Z,98289.6
2023-03-13T21:18:41.580Z,98293.1
2023-03-13T21:24:16.701Z,98288.6
2023-03-13T21:29:51.968Z,98292
2023-03-13T21:35:33.250Z,98292.2
2023-03-13T21:41:13.269Z,98280.9
2023-03-13T21:47:34.590Z,98274.5
2023-03-13T21:53:12.618Z,98271
2023-03-13T21:58:47.890Z,98278.6
2023-03-13T22:04:36.213Z,98271.9
2023-03-13T22:10:18.160Z,98273.7
2023-03-13T22:15:54.255Z,98272
2023-03-13T22:21:30.385Z,98269.4
2023-03-13T22:27:34.409Z,98265.4
2023-03-13T22:33:10.768Z,98260.1
2023-03-13T22:38:56.978Z,98260.5
2023-03-13T22:44:32.789Z,98264.3
2023-03-13T22:50:09.021Z,98273.2
2023-03-13T22:56:21.474Z,98294.1
2023-03-13T23:03:27.456Z,98298
2023-03-13T23:09:09.790Z,98282.6
2023-03-13T23:14:49.574Z,98294.4
2023-03-13T23:20:49.859Z,98293.4
2023-03-13T23:26:28.089Z,98297.9
2023-03-13T23:32:07.340Z,98291.3
2023-03-13T23:37:46.169Z,98309.4
2023-03-13T23:43:31.632Z,98300.9
2023-03-13T23:49:11.318Z,98300
2023-03-13T23:55:37.910Z,98302.5
